Time;durP1;ratioP1;P1;durP2;ratioP2;P2;SDS_P1;SDS_P2;PMS_P1;PMS_P2;Temp;Humidity;BMP_temperature;BMP_pressure;BME280_temperature;BME280_humidity;BME280_pressure;Samples;Min_cycle;Max_cycle;Signal;HPM_P1;HPM_P2
2023/07/18 00:00:46;;;;;;;5.70;2.77;;;;;;;15.54;100.00;102756.47;4945881;28;20958;-95
2023/07/18 00:03:15;;;;;;;7.30;3.30;;;;;;;15.74;100.00;102799.25;4946079;28;20471;-94
2023/07/18 00:05:40;;;;;;;7.63;3.40;;;;;;;15.59;100.00;102702.69;4945582;28;20450;-94
2023/07/18 00:08:06;;;;;;;8.00;2.90;;;;;;;15.71;100.00;102776.13;4949053;28;20436;-93
2023/07/18 00:10:32;;;;;;;7.07;3.30;;;;;;;15.50;100.00;102821.94;4948626;28;20191;-93
2023/07/18 00:12:57;;;;;;;10.37;3.50;;;;;;;15.38;100.00;102826.94;4945410;28;20443;-94
2023/07/18 00:15:24;;;;;;;6.60;3.17;;;;;;;15.83;100.00;102833.31;4944017;28;20191;-94
2023/07/18 00:17:50;;;;;;;8.97;3.23;;;;;;;15.66;100.00;102810.13;4943224;28;20199;-93
2023/07/18 00:20:18;;;;;;;7.27;3.50;;;;;;;15.80;100.00;102798.50;4944607;28;20949;-92
2023/07/18 00:22:48;;;;;;;7.00;3.20;;;;;;;15.77;100.00;102785.34;4942513;28;20660;-93
2023/07/18 00:25:16;;;;;;;5.97;3.00;;;;;;;15.94;100.00;102762.50;4942447;28;20458;-93
2023/07/18 00:27:53;;;;;;;5.57;3.10;;;;;;;15.34;100.00;102695.84;4943881;28;20429;-94
2023/07/18 00:30:20;;;;;;;5.30;2.73;;;;;;;15.81;100.00;102771.25;4937522;28;20601;-94
2023/07/18 00:32:46;;;;;;;5.77;2.50;;;;;;;15.54;100.00;102675.34;4937453;28;20474;-94
2023/07/18 00:35:13;;;;;;;6.50;2.90;;;;;;;16.14;100.00;102692.38;4942482;29;20466;-93
2023/07/18 00:37:39;;;;;;;4.20;2.10;;;;;;;15.43;100.00;102627.13;4947034;29;20207;-94
2023/07/18 00:40:12;;;;;;;3.97;2.60;;;;;;;15.56;100.00;102705.75;4947363;28;20455;-95
2023/07/18 00:42:39;;;;;;;5.83;2.60;;;;;;;15.37;100.00;102707.13;4944023;28;20443;-94
2023/07/18 00:45:05;;;;;;;4.67;2.80;;;;;;;15.49;100.00;102775.13;4947336;28;20442;-95
2023/07/18 00:47:31;;;;;;;4.87;2.63;;;;;;;15.58;100.00;102776.72;4947933;28;20498;-95
2023/07/18 00:49:56;;;;;;;5.60;3.03;;;;;;;15.46;100.00;102797.13;4948991;28;20552;-93
2023/07/18 00:52:22;;;;;;;6.23;3.03;;;;;;;15.38;100.00;102816.97;4948059;28;20271;-94
2023/07/18 00:54:48;;;;;;;7.37;3.20;;;;;;;15.65;100.00;102797.59;4945898;28;20195;-93
2023/07/18 00:57:13;;;;;;;6.90;2.70;;;;;;;15.67;100.00;102777.47;4946245;29;20207;-95
2023/07/18 00:59:39;;;;;;;6.90;2.67;;;;;;;15.42;100.00;102773.31;4944943;28;20211;-93
2023/07/18 01:02:09;;;;;;;7.80;3.20;;;;;;;15.29;100.00;102796.44;4944983;28;20674;-93
2023/07/18 01:04:34;;;;;;;6.73;2.73;;;;;;;15.44;100.00;102799.16;4945133;28;20195;-94
2023/07/18 01:07:00;;;;;;;9.17;2.90;;;;;;;15.48;100.00;102781.56;4944048;28;20445;-93
2023/07/18 01:09:25;;;;;;;5.07;3.27;;;;;;;15.29;100.00;102785.63;4937485;28;20214;-94
2023/07/18 01:11:51;;;;;;;6.10;2.87;;;;;;;15.59;100.00;102794.63;4931943;29;20191;-94
2023/07/18 01:14:16;;;;;;;4.47;2.40;;;;;;;15.24;100.00;102723.13;4944321;29;20187;-93
2023/07/18 01:16:42;;;;;;;8.67;3.13;;;;;;;15.59;100.00;102781.13;4946548;29;20635;-92
2023/07/18 01:19:07;;;;;;;8.93;3.07;;;;;;;15.45;100.00;102779.22;4945261;28;20203;-93
2023/07/18 01:21:33;;;;;;;8.30;2.70;;;;;;;15.61;100.00;102786.31;4945453;28;20187;-92
2023/07/18 01:23:58;;;;;;;6.20;2.93;;;;;;;15.76;100.00;102772.84;4941120;28;20830;-92
2023/07/18 01:26:24;;;;;;;5.77;2.73;;;;;;;15.58;100.00;102760.47;4945108;28;20218;-93
2023/07/18 01:28:49;;;;;;;7.53;3.13;;;;;;;15.36;100.00;102775.75;4941607;28;20676;-94
2023/07/18 01:31:15;;;;;;;8.37;3.00;;;;;;;15.03;100.00;102768.94;4944348;28;20582;-94
2023/07/18 01:33:42;;;;;;;6.90;2.77;;;;;;;15.04;100.00;102803.06;4939708;29;20179;-93
2023/07/18 01:36:07;;;;;;;7.87;3.33;;;;;;;14.89;100.00;102832.72;4945284;28;20191;-93
2023/07/18 01:38:35;;;;;;;7.00;3.40;;;;;;;14.97;100.00;102873.19;4952029;28;20472;-94
2023/07/18 01:41:01;;;;;;;7.43;3.00;;;;;;;15.17;100.00;102906.00;4946219;28;20187;-93
2023/07/18 01:43:26;;;;;;;9.57;3.20;;;;;;;15.21;100.00;102911.91;4941737;28;20434;-92
2023/07/18 01:45:52;;;;;;;6.80;2.87;;;;;;;15.15;100.00;102925.09;4944266;29;20281;-92
2023/07/18 01:48:19;;;;;;;5.23;2.90;;;;;;;15.12;100.00;102925.47;4931828;28;20650;-94
2023/07/18 01:50:44;;;;;;;7.30;3.20;;;;;;;15.10;100.00;102884.28;4924322;29;20183;-92
2023/07/18 01:53:13;;;;;;;9.17;3.53;;;;;;;15.50;100.00;102847.09;4941855;28;20447;-93
2023/07/18 01:55:38;;;;;;;11.10;3.10;;;;;;;15.26;100.00;102820.28;4941356;28;20202;-92
2023/07/18 01:58:04;;;;;;;10.80;3.17;;;;;;;15.25;100.00;102854.59;4934952;28;20515;-88
2023/07/18 02:00:30;;;;;;;8.30;3.57;;;;;;;15.12;100.00;102827.31;4939805;28;20203;-93
2023/07/18 02:02:57;;;;;;;6.50;2.73;;;;;;;15.29;100.00;102834.28;4936202;28;20184;-92
2023/07/18 02:05:25;;;;;;;5.23;2.60;;;;;;;15.29;100.00;102820.75;4942995;28;20470;-92
2023/07/18 02:07:51;;;;;;;7.10;2.73;;;;;;;15.17;100.00;102870.03;4940691;28;20474;-92
2023/07/18 02:10:21;;;;;;;7.40;3.33;;;;;;;15.13;100.00;102891.19;4936006;28;20462;-92
2023/07/18 02:12:51;;;;;;;6.73;2.50;;;;;;;15.02;100.00;102905.94;4942159;28;20443;-93
2023/07/18 02:15:17;;;;;;;7.57;2.83;;;;;;;14.86;100.00;102914.13;4944604;28;20446;-94
2023/07/18 02:17:43;;;;;;;8.37;3.23;;;;;;;14.96;100.00;102940.94;4924443;28;20500;-94
2023/07/18 02:20:11;;;;;;;6.33;2.73;;;;;;;15.07;100.00;102948.63;4941135;28;21067;-93
2023/07/18 02:22:38;;;;;;;12.73;3.07;;;;;;;14.80;100.00;102931.03;4943689;28;20184;-93
2023/07/18 02:25:04;;;;;;;9.67;2.50;;;;;;;14.61;100.00;102925.06;4941151;28;20920;-93
2023/07/18 02:27:34;;;;;;;10.57;3.50;;;;;;;14.91;100.00;102979.28;4953175;28;20927;-93
2023/07/18 02:30:01;;;;;;;13.20;3.70;;;;;;;15.04;100.00;102995.81;4955489;28;20475;-92
2023/07/18 02:32:30;;;;;;;6.80;2.80;;;;;;;15.01;100.00;102982.59;4948430;29;20498;-93
2023/07/18 02:34:56;;;;;;;6.10;3.43;;;;;;;14.96;100.00;102986.88;4955123;29;20434;-93
2023/07/18 02:37:25;;;;;;;11.07;3.50;;;;;;;14.68;100.00;102926.03;4946707;28;20505;-92
2023/07/18 02:39:51;;;;;;;6.87;3.30;;;;;;;15.01;100.00;102965.56;4952342;28;20563;-92
2023/07/18 02:42:17;;;;;;;7.17;3.10;;;;;;;14.96;100.00;102959.88;4943876;28;20572;-92
2023/07/18 02:44:46;;;;;;;9.20;3.57;;;;;;;14.90;100.00;102975.75;4948618;28;20251;-93
2023/07/18 02:47:12;;;;;;;6.53;2.70;;;;;;;14.68;100.00;102919.78;4948554;28;20525;-93
2023/07/18 02:49:37;;;;;;;10.47;3.40;;;;;;;14.73;100.00;102938.19;4946977;28;20599;-93
2023/07/18 02:52:03;;;;;;;7.93;3.40;;;;;;;14.85;100.00;102963.78;4947628;28;20194;-93
2023/07/18 02:54:29;;;;;;;7.30;2.90;;;;;;;14.86;100.00;102971.69;4950419;28;20837;-91
2023/07/18 02:56:56;;;;;;;8.70;3.43;;;;;;;14.84;100.00;102964.78;4945710;28;20474;-92
2023/07/18 02:59:22;;;;;;;10.97;3.27;;;;;;;14.47;100.00;102931.97;4943819;28;20511;-94
2023/07/18 03:01:54;;;;;;;7.20;2.90;;;;;;;14.99;100.00;103000.88;4930750;28;21249;-90
2023/07/18 03:04:22;;;;;;;10.80;4.13;;;;;;;14.81;100.00;102997.56;4952764;28;20445;-92
2023/07/18 03:06:47;;;;;;;8.90;4.03;;;;;;;14.96;100.00;103012.03;4943964;28;21000;-91
2023/07/18 03:09:16;;;;;;;7.33;3.50;;;;;;;14.69;100.00;103011.47;4952261;28;20484;-92
2023/07/18 03:11:42;;;;;;;8.47;3.63;;;;;;;14.74;100.00;102983.91;4944849;28;20254;-91
2023/07/18 03:14:08;;;;;;;8.57;3.63;;;;;;;14.75;100.00;102979.34;4952794;28;20450;-92
2023/07/18 03:16:34;;;;;;;9.33;2.97;;;;;;;14.83;100.00;102980.16;4943106;28;20510;-92
2023/07/18 03:18:59;;;;;;;7.93;3.43;;;;;;;14.68;100.00;102998.13;4945517;28;20466;-92
2023/07/18 03:21:25;;;;;;;6.67;3.37;;;;;;;14.51;100.00;102958.63;4931596;28;21333;-92
2023/07/18 03:23:53;;;;;;;9.00;3.43;;;;;;;14.46;100.00;102940.25;4947639;28;20234;-92
2023/07/18 03:26:19;;;;;;;7.13;3.70;;;;;;;14.74;100.00;102983.06;4937694;28;20940;-93
2023/07/18 03:28:44;;;;;;;12.20;4.80;;;;;;;14.65;100.00;102987.66;4948218;28;20490;-93
2023/07/18 03:31:10;;;;;;;8.33;3.30;;;;;;;14.78;100.00;102987.09;4952083;28;20664;-93
2023/07/18 03:33:35;;;;;;;9.53;4.40;;;;;;;14.34;100.00;102947.03;4932844;29;20195;-93
2023/07/18 03:36:00;;;;;;;6.80;3.60;;;;;;;14.63;100.00;102979.72;4933199;28;20198;-92
2023/07/18 03:38:26;;;;;;;6.70;3.57;;;;;;;14.48;100.00;102955.25;4937558;28;20227;-94
2023/07/18 03:40:52;;;;;;;8.43;3.43;;;;;;;14.09;100.00;102866.13;4939256;28;20254;-92
2023/07/18 03:43:18;;;;;;;14.47;4.10;;;;;;;14.71;100.00;102945.59;4935893;28;20224;-93
2023/07/18 03:45:43;;;;;;;12.90;4.07;;;;;;;14.65;100.00;102963.34;4946023;28;21080;-92
2023/07/18 03:48:08;;;;;;;11.87;3.87;;;;;;;14.66;100.00;102968.56;4937891;28;20195;-92
2023/07/18 03:50:34;;;;;;;10.53;3.67;;;;;;;14.73;100.00;102960.63;4940795;28;20195;-93
2023/07/18 03:52:59;;;;;;;9.23;3.17;;;;;;;14.82;100.00;102939.81;4940844;28;20607;-92
2023/07/18 03:55:25;;;;;;;6.83;2.93;;;;;;;14.39;100.00;102893.38;4930702;28;20212;-93
2023/07/18 03:57:51;;;;;;;6.77;3.10;;;;;;;14.76;100.00;102935.13;4942578;28;20670;-92
2023/07/18 04:00:17;;;;;;;6.30;2.93;;;;;;;15.01;100.00;102917.75;4939979;28;20470;-92
2023/07/18 04:02:45;;;;;;;9.00;3.33;;;;;;;14.79;100.00;102922.09;4940222;28;20198;-93
2023/07/18 04:05:13;;;;;;;8.17;3.20;;;;;;;14.53;100.00;102895.38;4944910;28;20458;-93
2023/07/18 04:07:39;;;;;;;8.27;3.37;;;;;;;14.74;100.00;102920.94;4943560;28;20474;-91
2023/07/18 04:10:05;;;;;;;9.23;3.67;;;;;;;14.97;100.00;102896.69;4943545;28;20975;-93
2023/07/18 04:12:31;;;;;;;6.03;3.13;;;;;;;14.92;100.00;102853.97;4941113;28;21048;-93
2023/07/18 04:14:57;;;;;;;8.90;3.30;;;;;;;14.84;100.00;102865.69;4927240;29;20462;-93
2023/07/18 04:17:24;;;;;;;11.70;4.07;;;;;;;14.89;100.00;102924.56;4920173;29;20218;-93
2023/07/18 04:19:51;;;;;;;11.60;3.73;;;;;;;14.72;100.00;102913.00;4944662;28;20534;-93
2023/07/18 04:22:17;;;;;;;5.93;3.50;;;;;;;14.73;100.00;102921.97;4936209;29;20447;-95
2023/07/18 04:24:42;;;;;;;12.60;3.93;;;;;;;14.84;100.00;102968.34;4934332;29;21198;-93
2023/07/18 04:27:08;;;;;;;11.97;3.30;;;;;;;14.78;100.00;102943.88;4934065;28;20211;-93
2023/07/18 04:29:33;;;;;;;13.57;3.90;;;;;;;14.83;100.00;102952.31;4929875;29;20214;-93
2023/07/18 04:31:59;;;;;;;9.50;2.93;;;;;;;14.55;100.00;102903.28;4932222;29;20226;-92
2023/07/18 04:34:24;;;;;;;7.90;3.20;;;;;;;15.00;100.00;102958.47;4932144;28;20187;-93
2023/07/18 04:36:49;;;;;;;13.40;4.00;;;;;;;14.07;100.00;102824.97;4946756;28;20206;-93
2023/07/18 04:39:15;;;;;;;13.47;3.90;;;;;;;14.91;100.00;102963.09;4933473;28;20218;-93
2023/07/18 04:41:40;;;;;;;7.37;3.30;;;;;;;14.84;100.00;102962.94;4953033;29;20187;-93
2023/07/18 04:44:06;;;;;;;10.30;3.33;;;;;;;15.00;100.00;102926.06;4931673;28;20195;-92
2023/07/18 04:46:32;;;;;;;9.30;3.60;;;;;;;14.91;100.00;102907.19;4940048;29;20282;-93
2023/07/18 04:49:00;;;;;;;7.67;3.30;;;;;;;14.82;100.00;102904.69;4929107;28;20553;-93
2023/07/18 04:51:25;;;;;;;11.47;3.47;;;;;;;14.96;100.00;102924.75;4941404;28;20214;-92
2023/07/18 04:53:51;;;;;;;6.63;3.13;;;;;;;14.88;100.00;102922.91;4930051;29;21075;-92
2023/07/18 04:56:18;;;;;;;8.60;3.60;;;;;;;14.29;100.00;102809.91;4949792;28;20281;-93
2023/07/18 04:58:45;;;;;;;9.23;3.57;;;;;;;14.67;100.00;102893.81;4955281;28;20257;-93
2023/07/18 05:01:10;;;;;;;9.87;3.90;;;;;;;14.50;100.00;102839.00;4948570;28;20517;-94
2023/07/18 05:03:36;;;;;;;11.87;3.50;;;;;;;14.55;100.00;102822.28;4954637;28;20479;-92
2023/07/18 05:06:02;;;;;;;14.17;5.27;;;;;;;14.81;100.00;102894.91;4951408;28;20263;-89
2023/07/18 05:08:27;;;;;;;14.00;5.20;;;;;;;14.86;100.00;102895.22;4953565;28;20203;-92
2023/07/18 05:11:00;;;;;;;14.13;5.97;;;;;;;14.81;100.00;102886.78;4951120;28;20441;-93
2023/07/18 05:13:25;;;;;;;10.80;5.50;;;;;;;14.94;100.00;102900.56;4934306;29;20344;-93
2023/07/18 05:15:51;;;;;;;9.20;4.40;;;;;;;15.07;100.00;102891.88;4924822;28;20970;-93
2023/07/18 05:18:16;;;;;;;12.07;5.80;;;;;;;14.96;100.00;102884.19;4931648;28;20811;-92
2023/07/18 05:20:42;;;;;;;12.30;5.40;;;;;;;14.79;100.00;102845.63;4936539;28;20309;-93
2023/07/18 05:23:08;;;;;;;10.57;4.67;;;;;;;15.23;100.00;102886.38;4946922;28;20184;-95
2023/07/18 05:25:34;;;;;;;12.13;6.10;;;;;;;15.01;100.00;102885.31;4939041;28;20191;-93
2023/07/18 05:28:00;;;;;;;13.77;5.40;;;;;;;14.97;100.00;102872.38;4934966;28;20445;-93
2023/07/18 05:30:26;;;;;;;12.30;5.13;;;;;;;14.97;100.00;102894.81;4938418;28;21555;-92
2023/07/18 05:32:55;;;;;;;11.03;4.73;;;;;;;14.92;100.00;102859.38;4951690;29;20195;-94
2023/07/18 05:35:22;;;;;;;11.53;4.90;;;;;;;15.02;100.00;102883.50;4942011;28;20501;-92
2023/07/18 05:37:48;;;;;;;10.70;5.07;;;;;;;15.04;100.00;102874.19;4954031;28;20463;-93
2023/07/18 05:40:13;;;;;;;8.87;5.23;;;;;;;15.24;100.00;102846.66;4938824;29;20567;-92
2023/07/18 05:42:43;;;;;;;9.13;5.30;;;;;;;15.25;100.00;102856.47;4933712;28;20244;-93
2023/07/18 05:45:09;;;;;;;9.40;4.90;;;;;;;14.97;100.00;102831.84;4945631;29;20216;-93
2023/07/18 05:47:38;;;;;;;13.10;5.07;;;;;;;15.08;100.00;102870.09;4942012;28;20495;-92
2023/07/18 05:50:04;;;;;;;13.57;6.07;;;;;;;15.05;100.00;102883.13;4958256;28;20450;-92
2023/07/18 05:52:30;;;;;;;15.60;6.00;;;;;;;15.13;100.00;102864.16;4946254;28;20472;-93
2023/07/18 05:54:56;;;;;;;13.80;4.80;;;;;;;15.30;100.00;102867.56;4936605;29;20446;-92
2023/07/18 05:57:21;;;;;;;8.27;3.63;;;;;;;15.28;100.00;102818.25;4951131;28;20474;-94
2023/07/18 05:59:47;;;;;;;12.10;4.30;;;;;;;15.92;100.00;102864.69;4931806;29;20210;-93
2023/07/18 06:02:14;;;;;;;12.23;5.33;;;;;;;15.89;100.00;102840.69;4946715;28;20556;-93
2023/07/18 06:04:39;;;;;;;10.73;4.70;;;;;;;15.81;100.00;102838.06;4934239;28;20202;-94
2023/07/18 06:09:32;;;;;;;14.80;5.13;;;;;;;15.52;100.00;102801.78;4937159;28;20644;-70
2023/07/18 06:11:58;;;;;;;13.33;5.57;;;;;;;15.54;100.00;102831.38;4935133;28;20447;-71
2023/07/18 06:14:24;;;;;;;6.93;4.27;;;;;;;15.61;100.00;102805.25;4934047;28;20190;-70
2023/07/18 06:16:49;;;;;;;8.23;3.97;;;;;;;15.79;100.00;102805.78;4932465;28;20929;-72
2023/07/18 06:19:15;;;;;;;7.87;3.80;;;;;;;15.92;100.00;102804.31;4944166;28;20234;-70
2023/07/18 06:21:41;;;;;;;6.87;4.00;;;;;;;15.83;100.00;102827.91;4946216;28;20624;-70
2023/07/18 06:24:07;;;;;;;13.43;4.67;;;;;;;15.31;100.00;102761.94;4946067;28;20255;-71
2023/07/18 06:26:32;;;;;;;12.80;5.10;;;;;;;15.64;100.00;102831.94;4945699;28;20211;-70
2023/07/18 06:28:58;;;;;;;10.20;4.90;;;;;;;15.74;100.00;102837.97;4944995;28;20179;-70
2023/07/18 06:31:23;;;;;;;10.07;5.17;;;;;;;15.70;100.00;102816.88;4942463;28;21016;-72
2023/07/18 06:33:49;;;;;;;8.70;5.20;;;;;;;15.87;100.00;102839.19;4944461;28;20335;-70
2023/07/18 06:36:15;;;;;;;12.20;4.90;;;;;;;15.86;100.00;102841.06;4924869;29;20299;-70
2023/07/18 06:38:41;;;;;;;17.27;5.97;;;;;;;15.45;100.00;102800.88;4946539;28;21168;-70
2023/07/18 06:41:06;;;;;;;12.10;5.50;;;;;;;15.89;100.00;102851.50;4944736;28;20434;-70
2023/07/18 06:43:32;;;;;;;10.90;5.70;;;;;;;15.47;100.00;102776.31;4950989;28;20250;-69
2023/07/18 06:45:58;;;;;;;12.60;4.37;;;;;;;15.82;100.00;102839.72;4950601;28;20207;-70
2023/07/18 06:48:24;;;;;;;13.30;5.30;;;;;;;15.42;100.00;102793.13;4946792;28;20179;-70
2023/07/18 06:50:53;;;;;;;12.00;5.90;;;;;;;15.68;100.00;102864.91;4944111;28;20827;-70
2023/07/18 06:53:21;;;;;;;10.40;5.47;;;;;;;15.38;100.00;102835.06;4949383;28;20724;-70
2023/07/18 06:55:50;;;;;;;13.53;5.83;;;;;;;15.69;100.00;102853.91;4947314;28;20493;-71
2023/07/18 06:58:17;;;;;;;11.53;4.90;;;;;;;15.91;100.00;102865.72;4929853;29;20478;-70
2023/07/18 07:00:43;;;;;;;14.50;5.43;;;;;;;15.63;100.00;102835.69;4943346;28;20999;-70
2023/07/18 07:03:09;;;;;;;10.93;5.00;;;;;;;15.86;100.00;102856.47;4937699;28;20470;-71
2023/07/18 07:05:38;;;;;;;13.90;6.17;;;;;;;15.70;100.00;102838.50;4943416;28;20552;-71
2023/07/18 07:08:10;;;;;;;10.53;4.93;;;;;;;15.69;100.00;102855.78;4940368;28;20194;-69
2023/07/18 07:10:36;;;;;;;16.40;5.90;;;;;;;15.63;100.00;102857.31;4943516;28;20987;-70
2023/07/18 07:13:02;;;;;;;15.30;5.63;;;;;;;15.88;100.00;102865.22;4947205;28;20466;-71
2023/07/18 07:15:28;;;;;;;17.40;5.10;;;;;;;15.91;100.00;102832.38;4943446;28;21199;-70
2023/07/18 07:17:53;;;;;;;9.23;5.07;;;;;;;16.02;100.00;102829.19;4923840;28;20477;-71
2023/07/18 07:20:19;;;;;;;13.60;6.20;;;;;;;15.75;100.00;102788.22;4942208;28;20218;-70
2023/07/18 07:22:47;;;;;;;11.50;5.67;;;;;;;15.70;100.00;102781.69;4947335;28;20191;-71
2023/07/18 07:25:15;;;;;;;12.03;5.23;;;;;;;16.10;100.00;102825.56;4941378;28;20225;-71
2023/07/18 07:27:43;;;;;;;11.40;5.43;;;;;;;16.39;100.00;102822.84;4948559;28;20442;-71
2023/07/18 07:30:10;;;;;;;11.03;5.40;;;;;;;16.50;100.00;102808.81;4944092;28;20494;-71
2023/07/18 07:32:36;;;;;;;10.97;5.17;;;;;;;16.40;100.00;102794.75;4942807;28;20450;-70
2023/07/18 07:35:04;;;;;;;13.60;5.40;;;;;;;16.44;100.00;102830.41;4940762;28;20840;-71
2023/07/18 07:37:29;;;;;;;15.40;6.67;;;;;;;16.40;100.00;102834.50;4945600;28;20796;-71
2023/07/18 07:39:55;;;;;;;12.17;5.77;;;;;;;15.70;100.00;102727.59;4946159;28;20530;-70
2023/07/18 07:42:20;;;;;;;13.83;5.37;;;;;;;16.53;100.00;102826.56;4947366;28;20206;-71
2023/07/18 07:44:46;;;;;;;18.30;7.27;;;;;;;16.61;100.00;102829.16;4928614;29;20214;-71
2023/07/18 07:47:11;;;;;;;15.70;6.10;;;;;;;16.29;100.00;102789.81;4941693;28;20214;-71
2023/07/18 07:49:36;;;;;;;14.77;5.57;;;;;;;16.34;100.00;102786.50;4943741;28;20251;-70
2023/07/18 07:52:02;;;;;;;14.10;6.50;;;;;;;16.45;100.00;102805.81;4941356;28;20191;-71
2023/07/18 07:54:28;;;;;;;13.97;6.73;;;;;;;16.60;100.00;102804.94;4941235;28;20194;-70
2023/07/18 07:56:53;;;;;;;12.40;5.57;;;;;;;16.72;100.00;102808.81;4942269;28;20600;-70
2023/07/18 07:59:19;;;;;;;12.47;6.03;;;;;;;16.97;100.00;102832.91;4928972;28;20218;-71
2023/07/18 08:01:44;;;;;;;16.13;6.60;;;;;;;17.05;100.00;102824.66;4945008;28;20229;-71
2023/07/18 08:04:11;;;;;;;18.90;6.30;;;;;;;16.93;100.00;102808.88;4943634;28;20871;-72
2023/07/18 08:06:36;;;;;;;11.10;5.20;;;;;;;16.82;100.00;102770.63;4943749;28;20687;-71
2023/07/18 08:09:02;;;;;;;11.83;4.50;;;;;;;17.18;100.00;102775.94;4946447;28;20457;-71
2023/07/18 08:11:28;;;;;;;11.80;4.87;;;;;;;17.16;100.00;102749.03;4936318;28;20213;-71
2023/07/18 08:13:54;;;;;;;13.40;5.10;;;;;;;17.37;100.00;102778.00;4938468;28;20446;-71
2023/07/18 08:16:20;;;;;;;12.37;5.40;;;;;;;17.38;100.00;102755.25;4941624;28;20747;-71
2023/07/18 08:18:45;;;;;;;16.63;6.30;;;;;;;17.40;100.00;102744.22;4924392;28;20215;-71
2023/07/18 08:21:11;;;;;;;8.90;4.40;;;;;;;17.46;100.00;102707.31;4938998;28;20505;-71
2023/07/18 08:23:36;;;;;;;13.60;4.60;;;;;;;17.25;100.00;102654.81;4941824;28;20238;-71
2023/07/18 08:26:02;;;;;;;13.93;4.27;;;;;;;17.67;100.00;102652.09;4943946;28;20219;-71
2023/07/18 08:28:27;;;;;;;11.77;5.37;;;;;;;17.68;100.00;102654.63;4942837;28;20246;-71
2023/07/18 08:30:53;;;;;;;10.90;4.33;;;;;;;17.67;100.00;102643.97;4940240;28;20281;-71
2023/07/18 08:33:19;;;;;;;11.50;5.63;;;;;;;17.67;100.00;102638.53;4931034;29;20194;-71
2023/07/18 08:35:45;;;;;;;13.10;5.60;;;;;;;17.55;100.00;102649.13;4932205;29;20315;-71
2023/07/18 08:38:13;;;;;;;13.83;6.10;;;;;;;17.64;100.00;102647.91;4945496;28;20934;-70
2023/07/18 08:40:43;;;;;;;11.90;4.77;;;;;;;17.72;100.00;102653.19;4948594;28;20306;-70
2023/07/18 08:43:13;;;;;;;9.43;4.77;;;;;;;17.97;100.00;102642.66;4949900;28;20774;-71
2023/07/18 08:45:39;;;;;;;11.37;5.07;;;;;;;18.11;100.00;102596.53;4948204;28;20486;-71
2023/07/18 08:48:05;;;;;;;11.00;4.37;;;;;;;18.11;100.00;102553.94;4930834;29;20502;-71
2023/07/18 08:50:32;;;;;;;10.90;4.40;;;;;;;18.20;100.00;102536.38;4949857;28;20442;-71
2023/07/18 08:52:58;;;;;;;6.90;3.77;;;;;;;18.29;100.00;102485.41;4950049;28;20191;-71
2023/07/18 08:55:23;;;;;;;7.00;3.30;;;;;;;18.49;100.00;102472.63;4948158;28;20473;-70
2023/07/18 08:57:50;;;;;;;7.63;2.97;;;;;;;18.46;100.00;102455.94;4949135;29;20268;-70
2023/07/18 09:00:20;;;;;;;8.53;2.97;;;;;;;18.57;100.00;102402.78;4943781;28;20179;-71
2023/07/18 09:02:48;;;;;;;9.80;2.80;;;;;;;18.42;100.00;102384.03;4947914;28;20426;-70
2023/07/18 09:05:34;;;;;;;5.73;1.90;;;;;;;18.67;100.00;102310.78;4947160;28;20478;-71
2023/07/18 09:08:01;;;;;;;7.43;2.30;;;;;;;19.05;100.00;102275.44;4925036;29;20458;-71
2023/07/18 09:10:27;;;;;;;8.27;2.60;;;;;;;18.94;100.00;102248.94;4940699;28;21270;-70
2023/07/18 09:12:54;;;;;;;9.83;2.57;;;;;;;18.70;100.00;102188.03;4940684;28;20504;-71
2023/07/18 09:15:21;;;;;;;4.53;1.77;;;;;;;18.60;100.00;102174.09;4943756;29;20525;-71
2023/07/18 09:17:54;;;;;;;6.33;1.50;;;;;;;18.67;100.00;102166.75;4945869;28;20485;-71
2023/07/18 09:20:20;;;;;;;6.23;1.97;;;;;;;18.79;100.00;102169.59;4949285;28;21019;-71
2023/07/18 09:22:46;;;;;;;4.25;1.75;;;;;;;18.38;100.00;102081.28;4941872;28;20447;-71
2023/07/18 09:25:16;;;;;;;4.10;1.50;;;;;;;19.08;100.00;102179.81;4943851;28;20218;-71
2023/07/18 09:27:41;;;;;;;4.30;1.60;;;;;;;18.95;100.00;102142.72;4938021;28;20504;-71
2023/07/18 09:30:09;;;;;;;5.10;1.40;;;;;;;19.01;100.00;102112.97;4940216;28;20900;-71
2023/07/18 09:32:35;;;;;;;4.00;1.30;;;;;;;19.06;100.00;102105.78;4940157;28;20246;-71
2023/07/18 09:35:01;;;;;;;5.27;1.70;;;;;;;18.96;100.00;102094.59;4944336;28;20525;-71
2023/07/18 09:37:27;;;;;;;5.33;1.63;;;;;;;19.02;100.00;102095.59;4942099;28;20565;-71
2023/07/18 09:39:57;;;;;;;5.57;1.70;;;;;;;19.37;100.00;102096.66;4941547;28;20210;-71
2023/07/18 09:42:23;;;;;;;5.43;1.50;;;;;;;19.54;100.00;102053.34;4945120;28;21023;-71
2023/07/18 09:44:50;;;;;;;6.60;2.10;;;;;;;19.61;100.00;102002.38;4944656;28;20446;-71
2023/07/18 09:47:17;;;;;;;7.73;1.77;;;;;;;19.33;100.00;101951.28;4943525;28;20964;-71
2023/07/18 09:49:43;;;;;;;4.00;1.67;;;;;;;19.34;100.00;101955.66;4940730;28;20446;-71
2023/07/18 09:52:10;;;;;;;6.00;1.70;;;;;;;19.54;100.00;101946.38;4941464;28;20481;-71
2023/07/18 09:54:36;;;;;;;4.63;1.80;;;;;;;19.68;100.00;101930.72;4945875;28;20461;-71
2023/07/18 09:57:10;;;;;;;3.90;1.10;;;;;;;19.55;100.00;101897.16;4940449;28;20502;-71
2023/07/18 09:59:39;;;;;;;7.20;1.70;;;;;;;19.50;100.00;101885.31;4943833;28;20450;-71
2023/07/18 10:02:10;;;;;;;5.53;1.57;;;;;;;19.55;100.00;101897.16;4942080;28;20446;-71
2023/07/18 10:04:36;;;;;;;4.93;1.20;;;;;;;19.72;100.00;101913.69;4943185;28;20457;-71
2023/07/18 10:07:03;;;;;;;3.10;1.10;;;;;;;19.72;100.00;101900.06;4938694;28;20447;-71
2023/07/18 10:09:31;;;;;;;2.60;1.10;;;;;;;19.57;100.00;101875.16;4943815;28;20498;-71
2023/07/18 10:12:03;;;;;;;4.73;1.70;;;;;;;19.71;100.00;101903.03;4947880;28;20473;-71
2023/07/18 10:14:49;;;;;;;3.00;0.90;;;;;;;19.51;100.00;101866.03;4948737;28;20478;-68
2023/07/18 10:17:25;;;;;;;3.87;1.10;;;;;;;19.90;100.00;101888.25;4947075;28;21017;-70
2023/07/18 10:19:51;;;;;;;4.90;1.87;;;;;;;19.83;100.00;101838.53;4930182;29;20439;-69
2023/07/18 10:22:32;;;;;;;3.87;0.93;;;;;;;20.49;100.00;101875.44;4950115;28;20431;-70
2023/07/18 10:25:07;;;;;;;2.27;1.10;;;;;;;20.41;100.00;101866.81;4950355;28;20206;-70
2023/07/18 10:27:37;;;;;;;3.40;1.50;;;;;;;20.29;100.00;101855.94;4942489;28;20824;-69
2023/07/18 10:30:10;;;;;;;2.43;0.90;;;;;;;19.97;100.00;101842.69;4927396;28;20460;-70
2023/07/18 10:32:37;;;;;;;5.80;1.70;;;;;;;19.90;100.00;101849.31;4939725;28;20442;-69
2023/07/18 10:35:11;;;;;;;2.13;1.13;;;;;;;19.85;100.00;101859.03;4941296;28;20528;-70
2023/07/18 10:37:51;;;;;;;3.13;0.80;;;;;;;19.81;100.00;101827.06;4922637;29;20574;-69
2023/07/18 10:40:42;;;;;;;2.53;0.90;;;;;;;20.23;100.00;101854.97;4938059;28;20564;-69
2023/07/18 10:43:11;;;;;;;4.20;1.20;;;;;;;20.25;100.00;101846.56;4932698;28;20490;-69
2023/07/18 10:45:41;;;;;;;3.47;1.30;;;;;;;20.29;100.00;101837.69;4939286;28;20474;-69
2023/07/18 10:48:18;;;;;;;3.43;1.33;;;;;;;20.14;100.00;101831.09;4936503;28;20447;-69
2023/07/18 10:50:46;;;;;;;2.07;1.00;;;;;;;20.22;100.00;101831.56;4945106;28;20449;-69
2023/07/18 10:53:19;;;;;;;3.00;1.00;;;;;;;20.05;100.00;101815.09;4938925;28;20951;-69
2023/07/18 10:55:45;;;;;;;3.40;1.47;;;;;;;19.82;100.00;101799.59;4921491;29;20474;-69
2023/07/18 10:58:19;;;;;;;4.17;1.13;;;;;;;19.69;100.00;101791.66;4939616;28;20492;-69
2023/07/18 11:00:46;;;;;;;2.90;1.23;;;;;;;20.05;100.00;101833.34;4922798;29;20970;-69
2023/07/18 11:03:31;;;;;;;4.03;1.20;;;;;;;19.97;100.00;101833.69;4946997;28;20454;-70
2023/07/18 11:05:56;;;;;;;4.30;1.33;;;;;;;20.10;100.00;101819.81;4942698;28;20596;-69
2023/07/18 11:08:26;;;;;;;2.57;1.47;;;;;;;20.12;100.00;101828.59;4945348;28;20490;-69
2023/07/18 11:11:00;;;;;;;2.13;0.93;;;;;;;20.22;100.00;101815.19;4945335;28;20541;-70
2023/07/18 11:13:32;;;;;;;2.83;1.10;;;;;;;20.21;100.00;101775.38;4948937;28;20492;-69
2023/07/18 11:16:01;;;;;;;4.13;1.30;;;;;;;20.32;100.00;101809.97;4946277;28;20473;-69